createdAt,value
2022-11-25T00:02:25.072Z,98.42
2022-11-25T00:02:57.804Z,98.63
2022-11-25T00:03:57.578Z,98.73
2022-11-25T00:04:57.536Z,98.63
2022-11-25T00:05:57.444Z,98.63
2022-11-25T00:06:57.382Z,98.52
2022-11-25T00:07:57.410Z,98.52
2022-11-25T00:08:57.279Z,98.52
2022-11-25T00:09:57.185Z,98.42
2022-11-25T00:10:57.119Z,98.42
2022-11-25T00:11:57.060Z,98.52
2022-11-25T00:12:56.994Z,98.52
2022-11-25T00:13:57.222Z,98.52
2022-11-25T00:14:56.851Z,98.42
2022-11-25T00:15:56.799Z,98.32
2022-11-25T00:16:56.769Z,98.32
2022-11-25T00:17:56.640Z,98.42
2022-11-25T00:18:56.635Z,98.32
2022-11-25T00:19:57.759Z,98.42
2022-11-25T00:20:56.498Z,98.42
2022-11-25T00:21:56.387Z,98.52
2022-11-25T00:22:56.344Z,98.63
2022-11-25T00:23:56.291Z,98.63
2022-11-25T00:24:56.288Z,98.73
2022-11-25T00:25:56.151Z,98.83
2022-11-25T00:26:56.150Z,98.94
2022-11-25T00:27:55.998Z,99.09
2022-11-25T00:28:55.993Z,99.19
2022-11-25T00:29:55.925Z,99.19
2022-11-25T00:30:55.829Z,99.30
2022-11-25T00:31:55.871Z,99.56
2022-11-25T00:32:55.703Z,99.56
2022-11-25T00:33:55.613Z,99.56
2022-11-25T00:34:55.568Z,99.46
2022-11-25T00:35:55.531Z,99.40
2022-11-25T00:36:55.414Z,99.35
2022-11-25T00:38:16.346Z,99.30
2022-11-25T00:38:55.331Z,99.19
2022-11-25T00:39:55.223Z,98.99
2022-11-25T00:40:55.183Z,98.88
2022-11-25T00:41:55.125Z,98.99
2022-11-25T00:42:55.013Z,98.88
2022-11-25T00:43:54.955Z,98.88
2022-11-25T00:44:54.898Z,98.88
2022-11-25T00:45:54.860Z,98.99
2022-11-25T00:46:54.745Z,98.99
2022-11-25T00:47:54.658Z,99.09
2022-11-25T00:48:54.620Z,99.19
2022-11-25T00:49:54.623Z,99.30
2022-11-25T00:50:54.564Z,99.44
2022-11-25T00:51:54.504Z,99.40
2022-11-25T00:52:54.408Z,99.55
2022-11-25T00:53:58.732Z,99.65
2022-11-25T00:54:54.261Z,99.65
2022-11-25T00:55:54.233Z,99.76
2022-11-25T00:56:54.150Z,99.76
2022-11-25T00:57:54.025Z,99.76
2022-11-25T00:58:53.992Z,99.86
2022-11-25T00:59:53.930Z,99.96
2022-11-25T01:00:53.872Z,99.96
2022-11-25T01:01:53.852Z,99.96
2022-11-25T01:02:53.735Z,99.96
2022-11-25T01:03:53.646Z,99.96
2022-11-25T01:04:53.580Z,99.86
2022-11-25T01:05:53.517Z,99.71
2022-11-25T01:06:53.456Z,99.65
2022-11-25T01:07:53.412Z,99.65
2022-11-25T01:08:53.350Z,99.65
2022-11-25T01:09:53.276Z,99.71
2022-11-25T01:10:53.203Z,99.82
2022-11-25T01:11:53.164Z,99.71
2022-11-25T01:12:53.081Z,99.82
2022-11-25T01:13:57.868Z,99.92
2022-11-25T01:14:52.942Z,99.92
2022-11-25T01:15:52.895Z,99.99
2022-11-25T01:16:52.889Z,99.99
2022-11-25T01:17:52.795Z,99.99
2022-11-25T01:18:52.657Z,99.99
2022-11-25T01:19:52.635Z,99.99
2022-11-25T01:20:52.607Z,99.99
2022-11-25T01:21:52.487Z,99.99
2022-11-25T01:22:52.411Z,99.99
2022-11-25T01:23:52.330Z,99.99
2022-11-25T01:24:52.262Z,99.99
2022-11-25T01:25:52.260Z,99.99
2022-11-25T01:26:52.131Z,99.99
2022-11-25T01:27:52.062Z,99.99
2022-11-25T01:28:52.023Z,99.99
2022-11-25T01:29:51.961Z,99.99
2022-11-25T01:30:51.919Z,99.99
2022-11-25T01:31:51.867Z,99.99
2022-11-25T01:32:51.795Z,99.99
2022-11-25T01:33:51.687Z,99.99
2022-11-25T01:34:51.666Z,99.99
2022-11-25T01:35:51.585Z,99.99
2022-11-25T01:36:51.550Z,99.98
2022-11-25T01:37:51.458Z,99.99
2022-11-25T01:38:51.460Z,99.99
2022-11-25T01:39:51.391Z,99.99
2022-11-25T01:40:51.328Z,99.99
2022-11-25T01:41:51.261Z,99.93
2022-11-25T01:42:51.174Z,99.93
2022-11-25T01:43:53.109Z,99.82
2022-11-25T01:44:51.047Z,99.82
2022-11-25T01:45:51.011Z,99.72
2022-11-25T01:46:50.885Z,99.66
2022-11-25T01:47:50.900Z,99.72
2022-11-25T01:48:50.768Z,99.66
2022-11-25T01:49:50.757Z,99.66
2022-11-25T01:50:50.631Z,99.87
2022-11-25T01:51:50.582Z,99.87
2022-11-25T01:52:50.524Z,99.77
2022-11-25T01:53:50.459Z,99.87
2022-11-25T01:54:50.397Z,99.87
2022-11-25T01:55:50.320Z,99.77
2022-11-25T01:56:50.260Z,99.87
2022-11-25T01:57:50.209Z,99.87
2022-11-25T01:58:50.133Z,99.87
2022-11-25T01:59:50.074Z,99.98
2022-11-25T02:00:50.022Z,99.98
2022-11-25T02:01:49.980Z,99.98
2022-11-25T02:02:49.993Z,99.98
2022-11-25T02:03:49.866Z,99.87
2022-11-25T02:04:49.746Z,99.87
2022-11-25T02:05:49.682Z,99.77
2022-11-25T02:06:49.585Z,99.87
2022-11-25T02:10:10.886Z,99.98
2022-11-25T02:11:08.907Z,99.87
2022-11-25T02:12:08.873Z,99.87
2022-11-25T02:13:08.805Z,99.87
2022-11-25T02:14:08.749Z,99.98
2022-11-25T02:15:08.707Z,99.87
2022-11-25T02:16:08.648Z,99.98
2022-11-25T02:17:08.498Z,99.99
2022-11-25T02:18:08.458Z,99.99
2022-11-25T02:19:08.397Z,99.99
2022-11-25T02:20:08.323Z,99.99
2022-11-25T02:21:08.254Z,99.99
2022-11-25T02:22:08.266Z,99.99
2022-11-25T02:23:08.129Z,99.99
2022-11-25T02:24:08.093Z,99.99
2022-11-25T02:25:08.029Z,99.99
2022-11-25T02:26:07.970Z,99.99
2022-11-25T02:27:07.857Z,99.98
2022-11-25T02:30:47.291Z,99.87
2022-11-25T02:31:27.283Z,99.77
2022-11-25T02:32:27.180Z,99.77
2022-11-25T02:33:27.086Z,99.77
2022-11-25T02:34:27.018Z,99.66
2022-11-25T02:35:27.000Z,99.66
2022-11-25T02:36:26.873Z,99.66
2022-11-25T02:37:26.829Z,99.66
2022-11-25T02:38:26.792Z,99.66
2022-11-25T02:39:26.672Z,99.66
2022-11-25T02:40:26.641Z,99.77
2022-11-25T02:41:26.576Z,99.77
2022-11-25T02:42:26.548Z,99.66
2022-11-25T02:43:26.469Z,99.66
2022-11-25T02:44:26.400Z,99.66
2022-11-25T02:45:26.420Z,99.66
2022-11-25T02:46:26.349Z,99.77
2022-11-25T02:47:26.186Z,99.77
2022-11-25T02:50:45.028Z,99.77
2022-11-25T02:51:45.503Z,99.77
2022-11-25T02:52:45.443Z,99.87
2022-11-25T02:53:45.371Z,99.87
2022-11-25T02:54:45.310Z,99.77
2022-11-25T02:55:45.286Z,99.87
2022-11-25T02:56:45.182Z,99.87
2022-11-25T02:57:45.114Z,99.77
2022-11-25T02:58:45.039Z,99.77
2022-11-25T02:59:44.957Z,99.77
2022-11-25T03:00:44.921Z,99.87
2022-11-25T03:01:44.984Z,99.77
2022-11-25T03:02:44.829Z,99.77
2022-11-25T03:03:44.748Z,99.66
2022-11-25T03:04:44.698Z,99.77
2022-11-25T03:05:44.596Z,99.77
2022-11-25T03:06:44.538Z,99.77
2022-11-25T03:07:44.535Z,99.66
2022-11-25T03:08:44.377Z,99.66
2022-11-25T03:09:44.339Z,99.66
2022-11-25T03:10:44.257Z,99.56
2022-11-25T03:11:44.191Z,99.66
2022-11-25T03:12:44.150Z,99.66
2022-11-25T03:13:44.382Z,99.66
2022-11-25T03:14:44.053Z,99.66
2022-11-25T03:15:43.927Z,99.56
2022-11-25T03:16:43.960Z,99.56
2022-11-25T03:17:43.832Z,99.56
2022-11-25T03:18:43.785Z,99.56
2022-11-25T03:19:43.700Z,99.56
2022-11-25T03:20:43.603Z,99.56
2022-11-25T03:21:43.543Z,99.56
2022-11-25T03:22:43.478Z,99.56
2022-11-25T03:23:43.441Z,99.56
2022-11-25T03:24:43.374Z,99.56
2022-11-25T03:26:04.295Z,99.56
2022-11-25T03:26:43.306Z,99.66
2022-11-25T03:27:43.182Z,99.66
2022-11-25T03:28:43.117Z,99.77
2022-11-25T03:29:43.050Z,99.77
2022-11-25T03:30:42.984Z,99.77
2022-11-25T03:31:43.054Z,99.87
2022-11-25T03:32:42.834Z,99.87
2022-11-25T03:33:42.799Z,99.77
2022-11-25T03:34:42.734Z,99.66
2022-11-25T03:35:42.667Z,99.66
2022-11-25T03:36:42.654Z,99.56
2022-11-25T03:37:42.558Z,99.56
2022-11-25T03:38:42.501Z,99.56
2022-11-25T03:39:42.412Z,99.66
2022-11-25T03:40:42.379Z,99.87
2022-11-25T03:41:42.307Z,99.99
2022-11-25T03:42:42.213Z,99.99
2022-11-25T03:43:42.159Z,99.99
2022-11-25T03:44:42.110Z,99.99
2022-11-25T03:45:42.086Z,99.99
2022-11-25T03:46:41.958Z,99.99
2022-11-25T03:47:41.930Z,99.99
2022-11-25T03:48:41.856Z,99.99
2022-11-25T03:49:41.785Z,99.99
2022-11-25T03:50:41.699Z,99.99
2022-11-25T03:51:41.609Z,99.99
2022-11-25T03:52:41.573Z,99.99
2022-11-25T03:53:41.509Z,99.99
2022-11-25T03:54:41.474Z,99.99
2022-11-25T03:55:41.434Z,99.99
2022-11-25T03:56:41.316Z,99.99
2022-11-25T03:57:41.301Z,99.99
2022-11-25T03:58:41.189Z,99.99
2022-11-25T03:59:41.146Z,99.99
2022-11-25T04:00:41.084Z,99.99
2022-11-25T04:01:44.230Z,99.99
2022-11-25T04:02:40.997Z,99.99
2022-11-25T04:03:40.944Z,99.99
2022-11-25T04:04:40.826Z,99.99
2022-11-25T04:05:40.742Z,99.99
2022-11-25T04:06:40.678Z,99.99
2022-11-25T04:07:40.700Z,99.99
2022-11-25T04:08:40.538Z,99.99
2022-11-25T04:09:40.487Z,99.99
2022-11-25T04:10:40.389Z,99.99
2022-11-25T04:11:40.326Z,99.99
2022-11-25T04:12:40.290Z,99.99
2022-11-25T04:13:40.263Z,99.99
2022-11-25T04:14:40.132Z,99.99
2022-11-25T04:15:40.062Z,99.99
2022-11-25T04:16:40.165Z,99.99
2022-11-25T04:17:39.949Z,99.99
2022-11-25T04:18:39.902Z,99.99
2022-11-25T04:21:58.302Z,99.99
2022-11-25T04:22:59.202Z,99.99
2022-11-25T04:23:59.171Z,99.99
2022-11-25T04:24:59.131Z,99.99
2022-11-25T04:25:59.068Z,99.99
2022-11-25T04:26:59.257Z,99.99
2022-11-25T04:27:58.912Z,99.93
2022-11-25T04:28:58.849Z,99.82
2022-11-25T04:29:58.785Z,99.78
2022-11-25T04:30:58.742Z,99.78
2022-11-25T04:31:58.650Z,99.78
2022-11-25T04:32:58.598Z,99.68
2022-11-25T04:33:58.494Z,99.68
2022-11-25T04:34:58.430Z,99.62
2022-11-25T04:35:58.389Z,99.52
2022-11-25T04:36:58.303Z,99.52
2022-11-25T04:37:58.234Z,99.52
2022-11-25T04:38:58.207Z,99.62
2022-11-25T04:39:58.160Z,99.82
2022-11-25T04:40:58.129Z,99.72
2022-11-25T04:41:58.068Z,99.62
2022-11-25T04:43:02.549Z,99.52
2022-11-25T04:43:57.836Z,99.62
2022-11-25T04:45:21.505Z,99.52
2022-11-25T04:46:13.492Z,99.41
2022-11-25T04:46:57.688Z,99.21
2022-11-25T04:47:57.559Z,98.58
2022-11-25T04:48:57.495Z,98.07
2022-11-25T04:49:57.433Z,97.44
2022-11-25T04:50:57.375Z,97.03
2022-11-25T04:51:57.331Z,97.49
2022-11-25T04:52:57.272Z,96.86
2022-11-25T04:53:57.234Z,96.55
2022-11-25T04:54:57.124Z,96.55
2022-11-25T04:55:57.046Z,96.66
2022-11-25T04:59:15.347Z,96.70
2022-11-25T05:00:16.246Z,96.91
2022-11-25T05:01:16.310Z,96.91
2022-11-25T05:02:16.180Z,97.12
2022-11-25T05:03:16.030Z,97.43
2022-11-25T05:04:16.054Z,97.37
2022-11-25T05:05:15.986Z,97.47
2022-11-25T05:06:15.911Z,97.47
2022-11-25T05:07:15.889Z,97.58
2022-11-25T05:08:15.766Z,97.68
2022-11-25T05:09:15.692Z,97.89
2022-11-25T05:10:15.705Z,97.99
2022-11-25T05:11:15.589Z,98.10
2022-11-25T05:12:15.549Z,98.20
2022-11-25T05:13:15.481Z,98.20
2022-11-25T05:14:15.400Z,98.41
2022-11-25T05:15:15.309Z,98.61
2022-11-25T05:16:16.516Z,98.72
2022-11-25T05:17:15.232Z,98.72
2022-11-25T05:18:15.153Z,98.82
2022-11-25T05:19:15.074Z,98.93
2022-11-25T05:20:15.013Z,98.82
2022-11-25T05:21:14.942Z,98.82
2022-11-25T05:22:14.923Z,98.82
2022-11-25T05:23:14.814Z,98.88
2022-11-25T05:24:14.774Z,98.88
2022-11-25T05:25:14.702Z,99.09
2022-11-25T05:26:14.597Z,99.19
2022-11-25T05:27:14.487Z,99.30
2022-11-25T05:28:14.517Z,99.61
2022-11-25T05:29:14.399Z,99.82
2022-11-25T05:30:14.360Z,99.99
2022-11-25T05:31:14.388Z,99.99
2022-11-25T05:32:14.240Z,99.99
2022-11-25T05:33:14.187Z,99.99
2022-11-25T05:34:14.132Z,99.99
2022-11-25T05:35:14.075Z,99.99
2022-11-25T05:36:14.003Z,99.99
2022-11-25T05:37:13.907Z,99.99
2022-11-25T05:38:13.844Z,99.99
2022-11-25T05:39:13.805Z,99.99
2022-11-25T05:40:14.261Z,99.99
2022-11-25T05:41:13.652Z,99.99
2022-11-25T05:42:13.581Z,99.99
2022-11-25T05:43:13.549Z,99.99
2022-11-25T05:44:16.131Z,99.99
2022-11-25T05:45:13.363Z,99.99
2022-11-25T05:46:13.406Z,99.93
2022-11-25T05:47:13.238Z,99.82
2022-11-25T05:48:13.170Z,99.62
2022-11-25T05:49:13.111Z,99.52
2022-11-25T05:50:13.068Z,99.52
2022-11-25T05:51:12.987Z,99.47
2022-11-25T05:52:20.156Z,99.37
2022-11-25T05:53:12.873Z,99.26
2022-11-25T05:54:12.837Z,99.26
2022-11-25T05:55:12.771Z,98.95
2022-11-25T05:56:12.707Z,98.85
2022-11-25T05:57:12.639Z,98.85
2022-11-25T05:58:12.549Z,98.85
2022-11-25T05:59:12.484Z,98.85
2022-11-25T06:00:12.404Z,98.95
2022-11-25T06:01:12.364Z,99.05
2022-11-25T06:02:12.315Z,98.95
2022-11-25T06:03:12.424Z,98.95
2022-11-25T06:04:12.410Z,98.95
2022-11-25T06:05:12.099Z,99.05
2022-11-25T06:06:12.064Z,98.95
2022-11-25T06:07:12.018Z,98.85
2022-11-25T06:08:11.875Z,98.95
2022-11-25T06:09:11.833Z,98.85
2022-11-25T06:10:11.786Z,98.74
2022-11-25T06:11:11.738Z,98.85
2022-11-25T06:12:11.640Z,98.85
2022-11-25T06:13:11.584Z,98.85
2022-11-25T06:14:11.517Z,99.05
2022-11-25T06:15:11.451Z,98.95
2022-11-25T06:16:11.417Z,98.95
2022-11-25T06:17:11.411Z,99.05
2022-11-25T06:18:11.235Z,99.05
2022-11-25T06:19:11.192Z,98.80
2022-11-25T06:20:11.153Z,98.91
2022-11-25T06:21:11.006Z,98.91
2022-11-25T06:22:11.042Z,98.91
2022-11-25T06:23:10.898Z,98.80
2022-11-25T06:24:10.853Z,98.70
2022-11-25T06:25:10.809Z,98.80
2022-11-25T06:26:10.722Z,98.80
2022-11-25T06:27:10.597Z,98.80
2022-11-25T06:28:31.575Z,98.80
2022-11-25T06:29:10.523Z,98.70
2022-11-25T06:30:10.487Z,98.70
2022-11-25T06:31:10.506Z,98.70
2022-11-25T06:32:10.332Z,98.70
2022-11-25T06:33:10.316Z,98.75
2022-11-25T06:34:10.213Z,98.86
2022-11-25T06:35:10.113Z,99.07
2022-11-25T06:36:10.112Z,99.17
2022-11-25T06:37:10.006Z,99.17
2022-11-25T06:38:09.887Z,99.27
2022-11-25T06:39:09.876Z,99.27
2022-11-25T06:40:09.810Z,99.27
2022-11-25T06:41:09.713Z,99.27
2022-11-25T06:42:09.640Z,99.27
2022-11-25T06:43:09.589Z,99.27
2022-11-25T06:44:09.497Z,99.27
2022-11-25T06:45:09.470Z,99.27
2022-11-25T06:46:09.429Z,99.27
2022-11-25T06:47:09.417Z,99.27
2022-11-25T06:48:09.573Z,99.27
2022-11-25T06:49:11.308Z,99.17
2022-11-25T06:50:10.659Z,99.17
2022-11-25T06:51:12.306Z,99.11
2022-11-25T06:52:12.323Z,99.22
2022-11-25T06:53:10.195Z,99.32
2022-11-25T06:54:08.882Z,99.32
2022-11-25T06:55:08.847Z,99.52
2022-11-25T06:56:08.729Z,99.52
2022-11-25T06:57:08.717Z,99.52
2022-11-25T06:58:34.430Z,99.63
2022-11-25T06:59:08.564Z,99.63
2022-11-25T07:00:08.464Z,99.63
2022-11-25T07:01:08.515Z,99.73
2022-11-25T07:02:08.441Z,99.84
2022-11-25T07:03:08.311Z,99.73
2022-11-25T07:04:08.294Z,99.73
2022-11-25T07:05:08.234Z,99.63
2022-11-25T07:06:08.082Z,99.63
2022-11-25T07:07:08.039Z,99.73
2022-11-25T07:08:07.980Z,99.73
2022-11-25T07:09:07.919Z,99.73
2022-11-25T07:10:09.321Z,99.63
2022-11-25T07:11:07.782Z,99.73
2022-11-25T07:12:07.753Z,99.63
2022-11-25T07:13:07.643Z,99.63
2022-11-25T07:14:07.595Z,99.63
2022-11-25T07:15:07.524Z,99.63
2022-11-25T07:16:07.555Z,99.63
2022-11-25T07:17:11.770Z,99.73
2022-11-25T07:18:07.341Z,99.73
2022-11-25T07:19:07.242Z,99.63
2022-11-25T07:20:07.228Z,99.63
2022-11-25T07:21:07.170Z,99.63
2022-11-25T07:22:07.121Z,99.63
2022-11-25T07:23:07.042Z,99.52
2022-11-25T07:24:06.944Z,99.58
2022-11-25T07:25:06.858Z,99.38
2022-11-25T07:26:06.812Z,99.27
2022-11-25T07:27:06.755Z,99.27
2022-11-25T07:28:06.721Z,99.17
2022-11-25T07:29:23.285Z,99.07
2022-11-25T07:31:23.828Z,99.07
2022-11-25T07:32:10.460Z,98.96
2022-11-25T07:33:06.371Z,98.96
2022-11-25T07:34:06.322Z,98.86
2022-11-25T07:35:06.249Z,98.86
2022-11-25T07:36:06.159Z,98.86
2022-11-25T07:37:06.105Z,98.75
2022-11-25T07:38:06.049Z,98.75
2022-11-25T07:39:05.974Z,98.75
2022-11-25T07:40:26.969Z,98.86
2022-11-25T07:41:05.842Z,98.96
2022-11-25T07:42:05.782Z,98.96
2022-11-25T07:43:05.729Z,98.86
2022-11-25T07:44:05.691Z,98.75
2022-11-25T07:45:05.641Z,98.86
2022-11-25T07:46:05.576Z,98.86
2022-11-25T07:47:05.457Z,98.71
2022-11-25T07:48:05.406Z,98.61
2022-11-25T07:49:05.310Z,98.61
2022-11-25T07:50:05.278Z,98.50
2022-11-25T07:51:05.240Z,98.61
2022-11-25T07:52:05.161Z,98.61
2022-11-25T07:53:05.080Z,98.61
2022-11-25T07:54:05.023Z,98.50
2022-11-25T07:55:04.992Z,98.40
2022-11-25T07:56:04.926Z,98.50
2022-11-25T07:57:04.802Z,98.50
2022-11-25T08:02:41.580Z,98.09
2022-11-25T08:03:42.376Z,98.19
2022-11-25T08:04:42.357Z,98.15
2022-11-25T08:05:42.306Z,98.15
2022-11-25T08:06:42.220Z,98.15
2022-11-25T08:07:42.158Z,98.05
2022-11-25T08:08:42.064Z,98.05
2022-11-25T08:09:42.022Z,98.05
2022-11-25T08:10:41.952Z,97.74
2022-11-25T08:11:41.918Z,97.53
2022-11-25T08:12:41.881Z,97.38
2022-11-25T08:13:41.770Z,97.38
2022-11-25T08:14:41.703Z,97.38
2022-11-25T08:15:41.700Z,97.49
2022-11-25T08:16:41.572Z,97.28
2022-11-25T08:17:41.515Z,97.28
2022-11-25T08:18:41.456Z,97.17
2022-11-25T08:19:41.412Z,96.97
2022-11-25T08:20:41.345Z,97.17
2022-11-25T08:21:41.288Z,97.28
2022-11-25T08:22:41.368Z,97.28
2022-11-25T08:23:41.123Z,96.97
2022-11-25T08:24:41.057Z,96.66
2022-11-25T08:25:42.962Z,96.45
2022-11-25T08:26:40.921Z,96.24
2022-11-25T08:27:43.393Z,96.45
2022-11-25T08:28:44.981Z,96.66
2022-11-25T08:29:43.603Z,96.86
2022-11-25T08:30:41.772Z,97.17
2022-11-25T08:31:56.906Z,97.07
2022-11-25T08:32:42.477Z,97.17
2022-11-25T08:33:41.010Z,97.59
2022-11-25T08:34:42.588Z,97.79
2022-11-25T08:35:41.653Z,98.10
2022-11-25T08:36:46.552Z,98.21
2022-11-25T08:39:59.468Z,98.31
2022-11-25T08:40:59.748Z,98.62
2022-11-25T08:42:00.270Z,98.72
2022-11-25T08:43:01.165Z,98.83
2022-11-25T08:43:59.386Z,98.93
2022-11-25T08:44:59.309Z,99.04
2022-11-25T08:45:59.300Z,99.04
2022-11-25T08:46:59.380Z,99.24
2022-11-25T08:47:59.103Z,99.24
2022-11-25T08:48:59.010Z,99.44
2022-11-25T08:49:59.006Z,99.55
2022-11-25T08:50:58.955Z,99.34
2022-11-25T08:51:58.851Z,99.34
2022-11-25T08:52:58.811Z,99.44
2022-11-25T08:53:58.821Z,99.19
2022-11-25T08:54:58.682Z,99.09
2022-11-25T08:55:58.610Z,98.99
2022-11-25T08:56:58.512Z,98.78
2022-11-25T08:57:58.439Z,98.88
2022-11-25T08:58:58.377Z,98.88
2022-11-25T08:59:58.347Z,98.78
2022-11-25T09:00:58.255Z,98.78
2022-11-25T09:01:58.248Z,98.78
2022-11-25T09:02:58.192Z,98.68
2022-11-25T09:03:58.080Z,98.68
2022-11-25T09:04:57.986Z,98.78
2022-11-25T09:05:57.946Z,98.78
2022-11-25T09:06:57.885Z,98.78
2022-11-25T09:07:57.883Z,98.53
2022-11-25T09:08:57.950Z,98.43
2022-11-25T09:09:57.838Z,98.32
2022-11-25T09:10:57.668Z,98.11
2022-11-25T09:11:57.563Z,98.43
2022-11-25T09:12:57.484Z,98.32
2022-11-25T09:13:57.455Z,98.22
2022-11-25T09:14:57.735Z,98.11
2022-11-25T09:15:57.374Z,98.01
2022-11-25T09:16:57.251Z,97.81
2022-11-25T09:17:57.151Z,97.81
2022-11-25T09:18:57.143Z,97.71
2022-11-25T09:19:57.085Z,97.60
2022-11-25T09:20:57.020Z,97.60
2022-11-25T09:21:56.929Z,97.60
2022-11-25T09:22:56.863Z,97.81
2022-11-25T09:23:56.792Z,97.50
2022-11-25T09:24:56.799Z,97.39
2022-11-25T09:25:56.722Z,97.50
2022-11-25T09:26:56.657Z,97.71
2022-11-25T09:27:56.540Z,97.91
2022-11-25T09:28:56.659Z,98.01
2022-11-25T09:29:56.418Z,97.91
2022-11-25T09:30:56.404Z,97.91
2022-11-25T09:31:56.377Z,98.01
2022-11-25T09:33:22.846Z,97.81
2022-11-25T09:33:56.179Z,97.81
2022-11-25T09:34:56.066Z,97.71
2022-11-25T09:35:56.026Z,97.50
2022-11-25T09:36:55.957Z,97.71
2022-11-25T09:37:55.911Z,97.81
2022-11-25T09:38:55.875Z,97.60
2022-11-25T09:39:55.772Z,97.29
2022-11-25T09:40:55.735Z,97.34
2022-11-25T09:41:55.648Z,97.14
2022-11-25T09:42:55.578Z,97.04
2022-11-25T09:43:55.489Z,97.14
2022-11-25T09:44:55.448Z,97.45
2022-11-25T09:45:55.393Z,97.25
2022-11-25T09:46:55.396Z,97.25
2022-11-25T09:47:57.815Z,97.25
2022-11-25T09:48:55.169Z,97.25
2022-11-25T09:49:55.130Z,96.62
2022-11-25T09:53:13.432Z,96.48
2022-11-25T09:54:14.363Z,96.27
2022-11-25T09:55:14.247Z,96.27
2022-11-25T09:56:14.185Z,96.37
2022-11-25T09:57:14.170Z,96.48
2022-11-25T09:58:14.100Z,95.96
2022-11-25T09:59:14.053Z,96.17
2022-11-25T10:00:13.950Z,96.27
2022-11-25T10:01:13.892Z,95.96
2022-11-25T10:02:13.942Z,95.50
2022-11-25T10:03:13.835Z,95.50
2022-11-25T10:04:13.744Z,95.40
2022-11-25T10:05:13.642Z,95.09
2022-11-25T10:06:13.591Z,94.68
2022-11-25T10:07:13.498Z,94.68
2022-11-25T10:08:14.023Z,94.57
2022-11-25T10:09:13.397Z,94.99
2022-11-25T10:10:13.451Z,95.15
2022-11-25T10:11:13.277Z,94.89
2022-11-25T10:12:13.206Z,94.89
2022-11-25T10:13:13.090Z,94.99
2022-11-25T10:14:13.072Z,95.30
2022-11-25T10:15:13.058Z,95.40
2022-11-25T10:16:13.014Z,95.71
2022-11-25T10:17:12.912Z,96.12
2022-11-25T10:18:12.826Z,96.33
2022-11-25T10:19:12.763Z,96.33
2022-11-25T10:20:12.668Z,96.74
2022-11-25T10:21:12.801Z,96.23
2022-11-25T10:22:12.582Z,96.23
2022-11-25T10:23:12.511Z,96.64
2022-11-25T10:24:12.413Z,97.05
2022-11-25T10:25:12.379Z,97.36
2022-11-25T10:26:12.312Z,97.67
2022-11-25T10:27:12.231Z,97.47
2022-11-25T10:28:12.901Z,97.56
2022-11-25T10:29:12.092Z,97.98
2022-11-25T10:30:12.018Z,98.08
2022-11-25T10:31:12.017Z,98.08
2022-11-25T10:32:11.878Z,98.19
2022-11-25T10:33:11.845Z,98.29
2022-11-25T10:34:11.788Z,98.33
2022-11-25T10:35:11.774Z,98.44
2022-11-25T10:36:11.653Z,98.65
2022-11-25T10:37:11.605Z,98.85
2022-11-25T10:38:17.408Z,98.85
2022-11-25T10:39:11.460Z,99.06
2022-11-25T10:40:11.402Z,99.26
2022-11-25T10:41:11.330Z,99.37
2022-11-25T10:42:11.237Z,99.16
2022-11-25T10:43:11.177Z,99.26
2022-11-25T10:44:11.159Z,99.37
2022-11-25T10:45:11.065Z,99.47
2022-11-25T10:46:11.073Z,99.16
2022-11-25T10:47:13.894Z,99.26
2022-11-25T10:48:10.875Z,99.47
2022-11-25T10:49:10.816Z,99.57
2022-11-25T10:50:10.775Z,99.68
2022-11-25T10:51:10.714Z,99.57
2022-11-25T10:52:10.646Z,99.78
2022-11-25T10:53:10.588Z,99.88
2022-11-25T10:54:10.470Z,99.99
2022-11-25T10:55:10.427Z,99.99
2022-11-25T10:56:10.370Z,99.99
2022-11-25T10:57:10.303Z,99.99
2022-11-25T10:58:10.279Z,99.99
2022-11-25T10:59:10.199Z,99.99
2022-11-25T11:00:16.868Z,99.99
2022-11-25T11:01:10.851Z,99.99
2022-11-25T11:02:10.021Z,99.99
2022-11-25T11:03:09.925Z,99.99
2022-11-25T11:04:39.668Z,99.99
2022-11-25T11:05:09.785Z,99.99
2022-11-25T11:06:09.725Z,99.99
2022-11-25T11:07:09.760Z,99.99
2022-11-25T11:08:09.570Z,99.99
2022-11-25T11:09:09.557Z,99.99
2022-11-25T11:10:09.461Z,99.99
2022-11-25T11:11:09.408Z,99.99
2022-11-25T11:12:09.338Z,99.99
2022-11-25T11:13:09.252Z,99.99
2022-11-25T11:14:09.209Z,99.99
2022-11-25T11:15:09.178Z,99.99
2022-11-25T11:16:09.373Z,99.99
2022-11-25T11:17:09.046Z,99.99
2022-11-25T11:18:08.950Z,99.99
2022-11-25T11:19:08.935Z,99.99
2022-11-25T11:20:08.861Z,99.99
2022-11-25T11:21:08.798Z,99.99
2022-11-25T11:22:29.672Z,99.99
2022-11-25T11:23:09.365Z,99.99
2022-11-25T11:24:08.554Z,99.99
2022-11-25T11:25:08.484Z,99.99
2022-11-25T11:26:08.447Z,99.99
2022-11-25T11:27:08.380Z,99.99
2022-11-25T11:28:08.353Z,99.99
2022-11-25T11:29:12.734Z,99.99
2022-11-25T11:30:08.229Z,99.99
2022-11-25T11:31:08.160Z,99.99
2022-11-25T11:32:08.062Z,99.99
2022-11-25T11:33:08.020Z,99.99
2022-11-25T11:34:07.972Z,99.99
2022-11-25T11:35:07.871Z,99.99
2022-11-25T11:36:07.804Z,99.99
2022-11-25T11:37:07.736Z,99.99
2022-11-25T11:38:07.668Z,99.99
2022-11-25T11:39:07.615Z,99.99
2022-11-25T11:40:07.560Z,99.99
2022-11-25T11:41:07.487Z,99.99
2022-11-25T11:42:07.476Z,99.99
2022-11-25T11:43:07.360Z,99.99
2022-11-25T11:44:07.290Z,99.99
2022-11-25T11:45:07.230Z,99.99
2022-11-25T11:46:07.202Z,99.99
2022-11-25T11:47:07.132Z,99.99
2022-11-25T11:48:07.035Z,99.99
2022-11-25T11:49:06.999Z,99.99
2022-11-25T11:50:06.914Z,99.99
2022-11-25T11:51:06.845Z,99.99
2022-11-25T11:52:06.804Z,99.99
2022-11-25T11:53:06.685Z,99.99
2022-11-25T11:54:06.646Z,99.99
2022-11-25T11:55:06.616Z,99.99
2022-11-25T11:56:33.768Z,99.99
2022-11-25T11:57:06.465Z,99.99
2022-11-25T11:58:06.447Z,99.99
2022-11-25T11:59:06.364Z,99.99
2022-11-25T12:00:06.277Z,99.79
2022-11-25T12:01:06.201Z,99.74
2022-11-25T12:02:06.210Z,99.64
2022-11-25T12:03:06.130Z,99.54
2022-11-25T12:04:06.033Z,99.43
2022-11-25T12:05:05.977Z,99.33
2022-11-25T12:06:05.885Z,99.54
2022-11-25T12:07:05.960Z,99.54
2022-11-25T12:08:05.729Z,99.33
2022-11-25T12:09:05.714Z,99.33
2022-11-25T12:10:05.640Z,99.02
2022-11-25T12:11:05.589Z,99.02
2022-11-25T12:12:05.522Z,98.97
2022-11-25T12:13:05.436Z,98.97
2022-11-25T12:14:05.397Z,99.08
2022-11-25T12:15:05.281Z,99.08
2022-11-25T12:16:05.334Z,99.08
2022-11-25T12:17:05.180Z,98.88
2022-11-25T12:18:05.116Z,98.77
2022-11-25T12:19:05.023Z,98.46
2022-11-25T12:20:04.988Z,98.15
2022-11-25T12:21:04.928Z,98.25
2022-11-25T12:22:04.857Z,98.32
2022-11-25T12:23:04.831Z,97.90
2022-11-25T12:24:04.734Z,98.11
2022-11-25T12:25:04.672Z,98.11
2022-11-25T12:26:04.620Z,97.90
2022-11-25T12:27:04.550Z,98.00
2022-11-25T12:28:04.470Z,97.75
2022-11-25T12:29:04.384Z,97.44
2022-11-25T12:30:04.358Z,97.50
2022-11-25T12:31:05.369Z,96.53
2022-11-25T12:32:04.345Z,94.99
2022-11-25T12:33:04.155Z,95.05
2022-11-25T12:35:13.318Z,93.98
2022-11-25T12:36:14.220Z,93.26
2022-11-25T12:37:15.381Z,92.70
2022-11-25T12:38:14.131Z,92.60
2022-11-25T12:39:13.998Z,92.50
2022-11-25T12:40:14.019Z,92.60
2022-11-25T12:41:13.901Z,92.60
2022-11-25T12:42:13.809Z,92.29
2022-11-25T12:43:13.740Z,92.60
2022-11-25T12:44:13.746Z,93.36
2022-11-25T12:45:13.646Z,92.95
2022-11-25T12:46:13.589Z,93.16
2022-11-25T12:47:13.479Z,93.36
2022-11-25T12:48:17.294Z,93.61
2022-11-25T12:49:13.357Z,94.12
2022-11-25T12:50:13.289Z,94.64
2022-11-25T12:51:13.222Z,94.43
2022-11-25T12:52:13.150Z,94.74
2022-11-25T12:53:13.075Z,94.12
2022-11-25T12:54:13.007Z,94.64
2022-11-25T12:55:12.968Z,95.05
2022-11-25T12:56:12.901Z,94.84
2022-11-25T12:57:12.844Z,94.33
2022-11-25T13:00:46.599Z,94.12
2022-11-25T13:01:32.250Z,94.12
2022-11-25T13:02:32.045Z,93.20
2022-11-25T13:03:31.916Z,93.26
2022-11-25T13:04:31.830Z,93.57
2022-11-25T13:05:40.523Z,93.98
2022-11-25T13:06:31.792Z,94.08
2022-11-25T13:07:31.710Z,94.29
2022-11-25T13:08:31.663Z,93.67
2022-11-25T13:09:31.551Z,93.46
2022-11-25T13:10:31.454Z,93.57
2022-11-25T13:11:52.955Z,93.67
2022-11-25T13:12:31.763Z,93.71
2022-11-25T13:13:31.807Z,93.77
2022-11-25T13:14:32.840Z,94.18
2022-11-25T13:15:31.758Z,94.29
2022-11-25T13:16:31.796Z,94.70
2022-11-25T13:17:31.208Z,94.49
2022-11-25T13:18:30.935Z,94.49